Time;durP1;ratioP1;P1;durP2;ratioP2;P2;SDS_P1;SDS_P2;PMS_P1;PMS_P2;Temp;Humidity;BMP_temperature;BMP_pressure;BME280_temperature;BME280_humidity;BME280_pressure;Samples;Min_cycle;Max_cycle;Signal;HPM_P1;HPM_P2
2024/01/26 00:02:13;;;;;;;44.95;15.00;;;;;;;;;;6127519;23;20028;-88
2024/01/26 00:04:55;;;;;;;49.30;15.23;;;;;;;;;;6116856;23;20028;-88
2024/01/26 00:07:23;;;;;;;49.60;16.52;;;;;;;;;;6115837;23;20164;-87
2024/01/26 00:09:52;;;;;;;53.03;17.92;;;;;;;;;;6091014;23;20481;-88
2024/01/26 00:12:21;;;;;;;50.55;16.45;;;;;;;;;;6092368;23;20421;-87
2024/01/26 00:14:50;;;;;;;52.10;17.25;;;;;;;;;;6090888;23;20103;-87
2024/01/26 00:17:21;;;;;;;55.38;18.02;;;;;;;;;;6092790;23;20465;-87
2024/01/26 00:19:49;;;;;;;54.58;17.70;;;;;;;;;;6114713;23;20057;-88
2024/01/26 00:22:16;;;;;;;58.58;18.27;;;;;;;;;;6092077;23;20018;-88
2024/01/26 00:24:42;;;;;;;60.90;18.50;;;;;;;;;;6113904;23;20018;-88
2024/01/26 00:27:08;;;;;;;60.65;19.20;;;;;;;;;;6090511;23;20088;-87
2024/01/26 00:29:34;;;;;;;56.20;17.80;;;;;;;;;;6095358;23;20025;-88
2024/01/26 00:32:00;;;;;;;57.15;17.13;;;;;;;;;;6093327;23;20021;-88
2024/01/26 00:34:26;;;;;;;61.38;19.80;;;;;;;;;;6096805;23;20475;-88
2024/01/26 00:36:52;;;;;;;65.55;19.27;;;;;;;;;;6091768;23;20055;-87
2024/01/26 00:39:18;;;;;;;55.40;18.83;;;;;;;;;;6121511;23;20017;-88
2024/01/26 00:41:47;;;;;;;56.13;18.45;;;;;;;;;;6096382;23;20072;-88
2024/01/26 00:44:15;;;;;;;61.47;19.98;;;;;;;;;;6123318;23;20028;-88
2024/01/26 00:46:41;;;;;;;60.75;20.42;;;;;;;;;;6119202;23;20453;-88
2024/01/26 00:49:08;;;;;;;57.78;17.45;;;;;;;;;;6123974;23;20060;-88
2024/01/26 00:51:34;;;;;;;57.03;18.88;;;;;;;;;;6147497;23;20021;-88
2024/01/26 00:54:00;;;;;;;63.10;17.92;;;;;;;;;;6144803;23;20396;-88
2024/01/26 00:56:26;;;;;;;53.53;18.10;;;;;;;;;;6120850;23;20024;-88
2024/01/26 00:58:52;;;;;;;61.63;18.70;;;;;;;;;;6094897;23;20025;-88
2024/01/26 01:01:19;;;;;;;60.80;18.10;;;;;;;;;;6121075;23;20016;-88
2024/01/26 01:03:45;;;;;;;57.17;17.58;;;;;;;;;;6118851;23;20060;-88
2024/01/26 01:06:11;;;;;;;56.05;18.17;;;;;;;;;;6121059;23;20021;-88
2024/01/26 01:08:37;;;;;;;52.97;18.17;;;;;;;;;;6118755;23;20021;-88
2024/01/26 01:11:05;;;;;;;57.22;19.30;;;;;;;;;;6122478;23;20103;-88
2024/01/26 01:13:31;;;;;;;52.72;16.38;;;;;;;;;;6121781;23;20020;-87
2024/01/26 01:16:00;;;;;;;54.60;17.60;;;;;;;;;;6119850;23;20323;-87
2024/01/26 01:18:26;;;;;;;54.70;18.50;;;;;;;;;;6145175;23;20415;-88
2024/01/26 01:20:53;;;;;;;59.35;18.67;;;;;;;;;;6119144;23;20080;-87
2024/01/26 01:23:20;;;;;;;51.65;17.40;;;;;;;;;;6096957;23;20040;-87
2024/01/26 01:25:46;;;;;;;58.55;17.85;;;;;;;;;;6120470;23;20021;-88
2024/01/26 01:28:12;;;;;;;51.65;17.67;;;;;;;;;;6098356;23;20013;-87
2024/01/26 01:30:38;;;;;;;55.85;19.02;;;;;;;;;;6120987;23;20025;-88
2024/01/26 01:33:04;;;;;;;53.60;17.73;;;;;;;;;;6120962;23;20017;-88
2024/01/26 01:35:30;;;;;;;54.67;19.05;;;;;;;;;;6121156;23;20389;-87
2024/01/26 01:37:56;;;;;;;52.78;17.52;;;;;;;;;;6094258;23;20021;-88
2024/01/26 01:40:22;;;;;;;52.05;17.58;;;;;;;;;;6096875;23;20071;-88
2024/01/26 01:42:48;;;;;;;57.20;17.80;;;;;;;;;;6093605;23;20017;-88
2024/01/26 01:45:14;;;;;;;56.58;17.50;;;;;;;;;;6099381;23;20092;-88
2024/01/26 01:47:41;;;;;;;56.33;18.20;;;;;;;;;;6096135;23;20025;-87
2024/01/26 01:50:10;;;;;;;50.90;17.42;;;;;;;;;;6124173;23;20074;-87
2024/01/26 01:52:42;;;;;;;47.20;18.08;;;;;;;;;;6121672;23;20021;-87
2024/01/26 01:55:09;;;;;;;53.30;18.13;;;;;;;;;;6099849;23;20104;-87
2024/01/26 01:57:36;;;;;;;50.17;17.37;;;;;;;;;;6125371;23;20032;-88
2024/01/26 02:00:04;;;;;;;47.92;18.17;;;;;;;;;;6101795;23;20009;-88
2024/01/26 02:02:30;;;;;;;52.50;18.17;;;;;;;;;;6125783;23;20385;-87
2024/01/26 02:04:56;;;;;;;44.42;18.58;;;;;;;;;;6124672;23;20067;-87
2024/01/26 02:07:24;;;;;;;39.33;16.50;;;;;;;;;;6126397;23;20083;-87
2024/01/26 02:09:50;;;;;;;41.75;16.67;;;;;;;;;;6122777;23;20056;-87
2024/01/26 02:12:16;;;;;;;46.67;16.55;;;;;;;;;;6099610;23;20021;-88
2024/01/26 02:14:44;;;;;;;40.13;17.15;;;;;;;;;;6097313;23;20017;-87
2024/01/26 02:17:10;;;;;;;41.20;16.35;;;;;;;;;;6099652;23;20483;-87
2024/01/26 02:19:38;;;;;;;46.80;18.15;;;;;;;;;;6096907;23;20108;-88
2024/01/26 02:22:04;;;;;;;40.63;15.88;;;;;;;;;;6123029;23;20013;-88
2024/01/26 02:24:30;;;;;;;39.33;16.50;;;;;;;;;;6098095;23;20116;-87
2024/01/26 02:26:56;;;;;;;44.58;18.02;;;;;;;;;;6120259;23;20504;-88
2024/01/26 02:29:22;;;;;;;39.58;15.25;;;;;;;;;;6120783;23;20088;-88
2024/01/26 02:31:48;;;;;;;38.60;15.73;;;;;;;;;;6120920;23;20107;-88
2024/01/26 02:34:14;;;;;;;36.65;15.32;;;;;;;;;;6121986;23;20079;-88
2024/01/26 02:36:40;;;;;;;36.05;15.80;;;;;;;;;;6096020;23;20013;-87
2024/01/26 02:39:06;;;;;;;34.17;15.10;;;;;;;;;;6121265;23;20763;-87
2024/01/26 02:41:33;;;;;;;33.58;15.60;;;;;;;;;;6098705;23;20076;-88
2024/01/26 02:43:59;;;;;;;32.63;14.60;;;;;;;;;;6097102;23;20013;-87
2024/01/26 02:46:25;;;;;;;27.17;14.02;;;;;;;;;;6097741;23;20021;-88
2024/01/26 02:48:51;;;;;;;29.50;14.00;;;;;;;;;;6120950;23;20020;-88
2024/01/26 02:51:17;;;;;;;31.02;13.35;;;;;;;;;;6121886;23;20335;-88
2024/01/26 02:53:43;;;;;;;29.60;13.85;;;;;;;;;;6093639;23;20048;-88
2024/01/26 02:56:09;;;;;;;28.95;14.35;;;;;;;;;;6114274;23;20024;-88
2024/01/26 02:58:35;;;;;;;27.63;13.73;;;;;;;;;;6115720;23;20095;-88
2024/01/26 03:01:01;;;;;;;27.20;13.15;;;;;;;;;;6121820;23;20465;-87
2024/01/26 03:03:27;;;;;;;27.67;13.63;;;;;;;;;;6098130;23;20491;-88
2024/01/26 03:05:53;;;;;;;26.02;13.25;;;;;;;;;;6121741;23;20533;-88
2024/01/26 03:08:19;;;;;;;23.83;12.63;;;;;;;;;;6099271;23;20021;-88
2024/01/26 03:10:47;;;;;;;23.52;13.68;;;;;;;;;;6120673;23;20406;-87
2024/01/26 03:13:16;;;;;;;22.77;12.73;;;;;;;;;;6098242;23;20111;-87
2024/01/26 03:15:42;;;;;;;;;;;;;;;;;;6097258;23;20525;-88
2024/01/26 03:18:08;;;;;;;22.80;12.50;;;;;;;;;;6146067;23;19916;-88
2024/01/26 03:20:35;;;;;;;23.08;11.73;;;;;;;;;;6096808;23;20100;-87
2024/01/26 03:23:01;;;;;;;24.55;12.88;;;;;;;;;;6121134;23;20021;-88
2024/01/26 03:25:27;;;;;;;22.48;12.43;;;;;;;;;;6122734;23;20023;-88
2024/01/26 03:27:53;;;;;;;23.55;13.23;;;;;;;;;;6143499;23;20100;-88
2024/01/26 03:30:19;;;;;;;22.23;13.45;;;;;;;;;;6122937;23;20556;-87
2024/01/26 03:32:45;;;;;;;22.88;12.68;;;;;;;;;;6120549;23;20029;-88
2024/01/26 03:35:11;;;;;;;22.35;12.70;;;;;;;;;;6098393;23;20603;-87
2024/01/26 03:37:38;;;;;;;24.02;13.20;;;;;;;;;;6096588;23;20083;-87
2024/01/26 03:40:05;;;;;;;25.17;14.13;;;;;;;;;;6122984;23;20020;-88
2024/01/26 03:42:31;;;;;;;22.40;12.93;;;;;;;;;;6122361;23;20063;-88
2024/01/26 03:44:57;;;;;;;24.90;13.63;;;;;;;;;;6119889;23;20021;-87
2024/01/26 03:47:23;;;;;;;23.60;12.50;;;;;;;;;;6122231;23;20025;-87
2024/01/26 03:49:49;;;;;;;22.83;12.57;;;;;;;;;;6119767;23;20013;-88
2024/01/26 03:52:15;;;;;;;28.23;13.05;;;;;;;;;;6096896;23;20361;-88
2024/01/26 03:54:41;;;;;;;25.17;12.80;;;;;;;;;;6144075;23;20021;-88
2024/01/26 03:57:08;;;;;;;22.40;12.68;;;;;;;;;;6145862;23;20016;-88
2024/01/26 03:59:34;;;;;;;22.55;12.50;;;;;;;;;;6097186;23;20013;-88
2024/01/26 04:02:00;;;;;;;25.58;13.60;;;;;;;;;;6096256;23;20040;-88
2024/01/26 04:04:26;;;;;;;23.50;12.95;;;;;;;;;;6097475;23;20029;-88
2024/01/26 04:06:52;;;;;;;23.13;13.02;;;;;;;;;;6098138;23;20453;-87
2024/01/26 04:09:18;;;;;;;25.60;12.43;;;;;;;;;;6099242;23;20017;-87
2024/01/26 04:11:44;;;;;;;23.10;12.23;;;;;;;;;;6097620;23;20527;-88
2024/01/26 04:14:10;;;;;;;24.38;12.60;;;;;;;;;;6098019;23;20025;-88
2024/01/26 04:16:36;;;;;;;22.35;12.35;;;;;;;;;;6121624;23;20102;-88
2024/01/26 04:19:02;;;;;;;24.38;12.07;;;;;;;;;;6098770;23;20059;-88
2024/01/26 04:21:28;;;;;;;21.20;12.40;;;;;;;;;;6122726;23;20017;-88
2024/01/26 04:23:54;;;;;;;23.48;12.82;;;;;;;;;;6120209;23;20100;-88
2024/01/26 04:26:20;;;;;;;25.23;13.05;;;;;;;;;;6097140;23;20376;-88
2024/01/26 04:28:47;;;;;;;21.42;12.15;;;;;;;;;;6089008;23;20659;-87
2024/01/26 04:31:13;;;;;;;25.25;13.30;;;;;;;;;;6094010;23;20079;-88
2024/01/26 04:33:39;;;;;;;25.58;13.40;;;;;;;;;;6114872;23;20025;-87
2024/01/26 04:36:08;;;;;;;23.23;12.88;;;;;;;;;;6095164;23;20083;-88
2024/01/26 04:38:34;;;;;;;23.02;13.02;;;;;;;;;;6092077;23;20341;-87
2024/01/26 04:41:00;;;;;;;27.10;12.98;;;;;;;;;;6089827;23;20321;-88
2024/01/26 04:43:26;;;;;;;24.63;13.45;;;;;;;;;;6092489;23;20596;-88
2024/01/26 04:45:52;;;;;;;23.85;12.82;;;;;;;;;;6090146;23;20374;-87
2024/01/26 04:48:18;;;;;;;23.13;12.57;;;;;;;;;;6113914;23;20032;-87
2024/01/26 04:50:44;;;;;;;25.15;12.90;;;;;;;;;;6090281;23;20025;-88
2024/01/26 04:53:10;;;;;;;26.27;13.40;;;;;;;;;;6091408;23;20032;-88
2024/01/26 04:55:36;;;;;;;23.02;12.80;;;;;;;;;;6140998;23;20021;-88
2024/01/26 04:58:02;;;;;;;24.70;12.95;;;;;;;;;;6091233;23;20049;-88
2024/01/26 05:00:28;;;;;;;30.48;13.90;;;;;;;;;;6092854;23;20013;-88
2024/01/26 05:02:54;;;;;;;25.92;12.60;;;;;;;;;;6092232;23;20304;-88
2024/01/26 05:05:20;;;;;;;22.23;12.65;;;;;;;;;;6094564;23;20112;-88
2024/01/26 05:07:46;;;;;;;24.70;12.88;;;;;;;;;;6092475;23;20032;-88
2024/01/26 05:10:12;;;;;;;24.00;13.38;;;;;;;;;;6119624;23;20025;-87
2024/01/26 05:12:38;;;;;;;27.00;13.30;;;;;;;;;;6091139;23;20068;-88
2024/01/26 05:15:05;;;;;;;28.58;13.90;;;;;;;;;;6092882;23;20025;-88
2024/01/26 05:17:32;;;;;;;27.00;14.07;;;;;;;;;;6115398;23;20021;-88
2024/01/26 05:19:58;;;;;;;25.48;13.93;;;;;;;;;;6091920;23;20498;-87
2024/01/26 05:22:24;;;;;;;23.85;13.45;;;;;;;;;;6117832;23;20021;-88
2024/01/26 05:24:50;;;;;;;26.15;14.00;;;;;;;;;;6091522;23;20022;-87
2024/01/26 05:27:16;;;;;;;24.73;14.65;;;;;;;;;;6117619;23;20021;-88
2024/01/26 05:29:42;;;;;;;26.88;14.35;;;;;;;;;;6140747;23;20022;-88
2024/01/26 05:32:08;;;;;;;25.17;14.32;;;;;;;;;;6094670;23;20017;-88
2024/01/26 05:34:34;;;;;;;30.08;14.80;;;;;;;;;;6118095;23;20029;-88
2024/01/26 05:37:00;;;;;;;25.98;14.10;;;;;;;;;;6116732;23;20017;-88
2024/01/26 05:39:29;;;;;;;24.38;14.15;;;;;;;;;;6092804;23;20191;-88
2024/01/26 05:41:55;;;;;;;25.95;14.60;;;;;;;;;;6092434;23;20086;-87
2024/01/26 05:44:21;;;;;;;30.73;14.88;;;;;;;;;;6118210;23;20021;-88
2024/01/26 05:46:47;;;;;;;26.65;14.07;;;;;;;;;;6091812;23;20069;-88
2024/01/26 05:49:13;;;;;;;24.40;13.25;;;;;;;;;;6142159;23;20605;-88
2024/01/26 05:51:39;;;;;;;28.40;14.27;;;;;;;;;;6116224;23;20014;-88
2024/01/26 05:54:05;;;;;;;24.73;13.95;;;;;;;;;;6094137;23;20383;-87
2024/01/26 05:56:31;;;;;;;25.42;13.70;;;;;;;;;;6094873;23;20018;-88
2024/01/26 05:58:57;;;;;;;22.23;13.23;;;;;;;;;;6116214;23;20578;-88
2024/01/26 06:01:23;;;;;;;22.20;14.05;;;;;;;;;;6142325;23;20440;-88
2024/01/26 06:03:49;;;;;;;23.23;13.38;;;;;;;;;;6115000;23;20024;-88
2024/01/26 06:06:15;;;;;;;24.88;13.88;;;;;;;;;;6094233;23;20037;-87
2024/01/26 06:08:44;;;;;;;20.98;11.93;;;;;;;;;;6115387;23;20026;-88
2024/01/26 06:11:10;;;;;;;21.83;14.00;;;;;;;;;;6117961;23;20025;-88
2024/01/26 06:13:36;;;;;;;16.63;11.48;;;;;;;;;;6091120;23;20449;-88
2024/01/26 06:16:03;;;;;;;20.67;11.60;;;;;;;;;;6119621;23;20096;-87
2024/01/26 06:18:30;;;;;;;21.55;12.20;;;;;;;;;;6116467;23;20017;-87
2024/01/26 06:20:56;;;;;;;23.77;12.38;;;;;;;;;;6090391;23;20109;-87
2024/01/26 06:23:22;;;;;;;20.33;11.95;;;;;;;;;;6117781;23;20048;-87
2024/01/26 06:25:48;;;;;;;18.33;10.88;;;;;;;;;;6116022;23;20028;-87
2024/01/26 06:28:14;;;;;;;21.45;11.18;;;;;;;;;;6097579;23;20021;-88
2024/01/26 06:30:40;;;;;;;21.02;11.70;;;;;;;;;;6097026;23;20025;-88
2024/01/26 06:33:06;;;;;;;17.05;11.18;;;;;;;;;;6099059;23;20023;-88
2024/01/26 06:35:34;;;;;;;18.02;11.55;;;;;;;;;;6097621;23;20044;-88
2024/01/26 06:38:00;;;;;;;18.58;10.80;;;;;;;;;;6096092;23;20048;-87
2024/01/26 06:40:26;;;;;;;17.42;10.52;;;;;;;;;;6122568;23;20017;-87
2024/01/26 06:42:52;;;;;;;18.05;10.63;;;;;;;;;;6119955;23;20021;-87
2024/01/26 06:45:18;;;;;;;20.85;10.68;;;;;;;;;;6122770;23;20075;-88
2024/01/26 06:47:44;;;;;;;16.83;10.57;;;;;;;;;;6120231;23;20025;-87
2024/01/26 06:50:10;;;;;;;15.85;9.85;;;;;;;;;;6122591;23;20028;-88
2024/01/26 06:52:36;;;;;;;19.33;9.00;;;;;;;;;;6120302;23;20017;-87
2024/01/26 06:55:02;;;;;;;16.35;8.80;;;;;;;;;;6097132;23;20027;-88
2024/01/26 06:57:28;;;;;;;17.50;8.93;;;;;;;;;;6121303;23;20016;-88
2024/01/26 06:59:55;;;;;;;14.35;8.90;;;;;;;;;;6148765;23;20013;-92
2024/01/26 07:02:21;;;;;;;17.85;9.40;;;;;;;;;;6103160;23;20016;-87
2024/01/26 07:04:49;;;;;;;15.52;9.15;;;;;;;;;;6120184;23;20035;-88
2024/01/26 07:07:15;;;;;;;15.07;8.82;;;;;;;;;;6124084;23;20025;-87
2024/01/26 07:09:44;;;;;;;14.93;8.35;;;;;;;;;;6094947;23;20029;-89
2024/01/26 07:12:15;;;;;;;10.98;7.57;;;;;;;;;;6098334;23;20350;-90
2024/01/26 07:14:46;;;;;;;13.25;7.25;;;;;;;;;;6120979;23;20024;-90
2024/01/26 07:17:44;;;;;;;13.65;8.63;;;;;;;;;;6123813;23;20745;-90
2024/01/26 07:20:20;;;;;;;12.18;7.03;;;;;;;;;;6124523;23;20013;-90
2024/01/26 07:22:52;;;;;;;12.77;7.78;;;;;;;;;;6120603;23;20013;-89
2024/01/26 07:25:42;;;;;;;11.13;7.05;;;;;;;;;;6101154;23;20016;-90
2024/01/26 07:28:33;;;;;;;11.70;7.72;;;;;;;;;;6071696;23;20454;-88
2024/01/26 07:31:06;;;;;;;10.40;6.43;;;;;;;;;;6148042;23;20040;-91
2024/01/26 07:33:59;;;;;;;10.93;6.55;;;;;;;;;;6125706;23;20029;-90
2024/01/26 07:36:41;;;;;;;;;;;;;;;;;;;;;
2024/01/26 07:39:26;;;;;;;;;;;;;;;;;;;;;
2024/01/26 07:42:27;;;;;;;8.18;5.72;;;;;;;;;;6122682;23;20027;-90
2024/01/26 07:45:48;;;;;;;;;;;;;;;;;;;;;
2024/01/26 07:48:14;;;;;;;;;;;;;;;;;;;;;
2024/01/26 07:54:35;;;;;;;;;;;;;;;;;;;;;
2024/01/26 07:57:25;;;;;;;8.45;5.47;;;;;;;;;;6144457;23;20115;-91
2024/01/26 08:00:00;;;;;;;8.50;5.40;;;;;;;;;;6135738;23;20063;-87
2024/01/26 08:02:26;;;;;;;7.40;5.05;;;;;;;;;;6098845;23;20028;-87
2024/01/26 08:05:08;;;;;;;;;;;;;;;;;;;;;
2024/01/26 08:11:16;;;;;;;7.88;4.55;;;;;;;;;;6111946;23;20029;-94
2024/01/26 08:14:20;;;;;;;7.07;4.25;;;;;;;;;;6121247;23;20028;-89
2024/01/26 08:20:33;;;;;;;;;;;;;;;;;;;;;
2024/01/26 08:23:31;;;;;;;7.03;4.50;;;;;;;;;;6146054;23;20020;-91
2024/01/26 08:26:19;;;;;;;;;;;;;;;;;;;;;
2024/01/26 08:29:16;;;;;;;5.95;3.88;;;;;;;;;;6122914;23;20461;-90
2024/01/26 08:41:43;;;;;;;;;;;;;;;;;;;;;
2024/01/26 08:44:42;;;;;;;;;;;;;;;;;;;;;
2024/01/26 08:50:53;;;;;;;6.95;4.38;;;;;;;;;;5998104;23;20571;-91
2024/01/26 08:53:52;;;;;;;10.48;4.88;;;;;;;;;;6006714;23;20015;-90
2024/01/26 08:56:33;;;;;;;7.05;4.68;;;;;;;;;;6030384;23;20023;-90
2024/01/26 08:59:18;;;;;;;7.18;5.30;;;;;;;;;;6004847;23;20011;-90
2024/01/26 09:02:19;;;;;;;6.22;4.85;;;;;;;;;;6009412;23;20015;-92
2024/01/26 09:05:11;;;;;;;8.63;5.50;;;;;;;;;;6025626;23;20123;-90
2024/01/26 09:08:02;;;;;;;10.27;5.97;;;;;;;;;;5972424;23;20545;-91
2024/01/26 09:10:39;;;;;;;8.20;5.90;;;;;;;;;;5931012;23;20019;-91
2024/01/26 09:23:43;;;;;;;;;;;;;;;;;;;;;
2024/01/26 09:26:43;;;;;;;;;;;;;;;;;;;;;
2024/01/26 09:33:15;;;;;;;8.30;4.63;;;;;;;;;;5909656;24;20024;-91
2024/01/26 09:35:56;;;;;;;9.48;4.90;;;;;;;;;;5960356;23;20110;-90
2024/01/26 09:41:44;;;;;;;3.38;1.98;;;;;;;;;;6078282;23;20253;-91
2024/01/26 09:44:10;;;;;;;2.30;1.20;;;;;;;;;;6114951;23;20022;-91
2024/01/26 09:46:36;;;;;;;1.13;0.50;;;;;;;;;;6114530;23;20025;-91
2024/01/26 09:49:02;;;;;;;1.23;0.70;;;;;;;;;;6114366;23;20018;-90
2024/01/26 09:51:28;;;;;;;3.05;0.80;;;;;;;;;;6115368;23;20383;-91
2024/01/26 09:53:56;;;;;;;2.05;0.73;;;;;;;;;;6112594;23;20027;-91
2024/01/26 09:56:22;;;;;;;2.45;0.80;;;;;;;;;;6115665;23;20450;-92
2024/01/26 09:58:48;;;;;;;5.10;0.80;;;;;;;;;;6113486;23;20643;-92
2024/01/26 10:01:15;;;;;;;1.45;0.55;;;;;;;;;;6114060;23;20021;-91
2024/01/26 10:03:41;;;;;;;2.47;0.70;;;;;;;;;;6111848;23;20025;-92
2024/01/26 10:06:07;;;;;;;4.35;0.80;;;;;;;;;;6114832;23;20080;-92
2024/01/26 10:08:42;;;;;;;2.65;0.73;;;;;;;;;;6118124;23;20112;-91
2024/01/26 10:11:08;;;;;;;4.68;0.85;;;;;;;;;;6117715;23;20065;-92
2024/01/26 10:13:34;;;;;;;4.38;1.05;;;;;;;;;;6141676;23;20017;-91
2024/01/26 10:16:07;;;;;;;3.30;0.65;;;;;;;;;;6114923;23;20549;-91
2024/01/26 10:18:43;;;;;;;3.00;0.90;;;;;;;;;;6141877;23;20088;-92
2024/01/26 10:21:10;;;;;;;3.50;0.90;;;;;;;;;;6140919;23;20021;-93
2024/01/26 10:23:36;;;;;;;7.25;1.10;;;;;;;;;;6114162;23;20075;-92
2024/01/26 10:26:02;;;;;;;4.72;0.75;;;;;;;;;;6138585;23;20378;-91
2024/01/26 10:28:32;;;;;;;7.07;1.13;;;;;;;;;;6142753;23;20049;-90
2024/01/26 10:30:58;;;;;;;7.88;1.52;;;;;;;;;;6111778;23;20013;-90
2024/01/26 10:33:24;;;;;;;5.93;1.13;;;;;;;;;;6141298;23;20437;-90
2024/01/26 10:35:56;;;;;;;11.00;2.33;;;;;;;;;;6137776;23;20093;-90
2024/01/26 10:38:25;;;;;;;7.45;1.70;;;;;;;;;;6140974;23;20013;-90
2024/01/26 10:40:51;;;;;;;8.00;1.42;;;;;;;;;;6146596;23;20013;-91
2024/01/26 10:43:20;;;;;;;7.32;1.50;;;;;;;;;;6123805;23;20017;-90
2024/01/26 10:45:46;;;;;;;7.68;2.17;;;;;;;;;;6119961;23;20096;-89
2024/01/26 10:48:12;;;;;;;9.80;1.83;;;;;;;;;;6123990;23;20090;-90
2024/01/26 10:50:38;;;;;;;9.98;2.60;;;;;;;;;;6117876;23;20021;-90
2024/01/26 10:53:05;;;;;;;9.02;1.73;;;;;;;;;;6100274;23;20504;-90
2024/01/26 10:55:31;;;;;;;9.38;2.40;;;;;;;;;;6123529;23;20020;-91
2024/01/26 10:57:57;;;;;;;4.53;1.48;;;;;;;;;;6121202;23;20449;-90
2024/01/26 11:00:24;;;;;;;6.75;1.45;;;;;;;;;;6122684;23;20009;-89
2024/01/26 11:02:50;;;;;;;9.20;1.65;;;;;;;;;;6120327;23;20023;-88
2024/01/26 11:05:17;;;;;;;8.10;1.50;;;;;;;;;;6123682;23;20021;-89
2024/01/26 11:07:44;;;;;;;10.55;1.70;;;;;;;;;;6096322;23;20021;-88
2024/01/26 11:10:11;;;;;;;9.27;1.55;;;;;;;;;;6122409;23;20060;-90
2024/01/26 11:12:38;;;;;;;12.90;1.80;;;;;;;;;;6123491;23;20473;-90
2024/01/26 11:15:12;;;;;;;9.27;1.83;;;;;;;;;;6149119;23;20048;-90
2024/01/26 11:17:45;;;;;;;8.80;1.58;;;;;;;;;;6096308;23;20075;-90
2024/01/26 11:20:15;;;;;;;12.02;1.70;;;;;;;;;;6146251;23;20013;-90
2024/01/26 11:22:41;;;;;;;12.10;1.65;;;;;;;;;;6096047;23;20072;-90
2024/01/26 11:25:07;;;;;;;9.23;1.88;;;;;;;;;;6145715;23;20071;-90
2024/01/26 11:27:33;;;;;;;7.32;2.15;;;;;;;;;;6098291;23;20025;-89
2024/01/26 11:29:59;;;;;;;8.05;2.42;;;;;;;;;;6119166;23;20027;-89
2024/01/26 11:35:06;;;;;;;9.48;2.33;;;;;;;;;;6193792;23;20025;-91
2024/01/26 11:37:33;;;;;;;12.43;2.00;;;;;;;;;;6129280;23;20353;-88
2024/01/26 11:40:00;;;;;;;9.38;2.13;;;;;;;;;;6173464;23;20024;-89
2024/01/26 11:42:29;;;;;;;8.93;2.00;;;;;;;;;;6152605;23;20028;-88
2024/01/26 11:45:12;;;;;;;11.32;1.58;;;;;;;;;;6149351;23;20017;-88
2024/01/26 11:47:40;;;;;;;11.02;1.80;;;;;;;;;;6151928;23;20016;-89
2024/01/26 11:50:10;;;;;;;7.03;1.60;;;;;;;;;;6124669;23;20024;-89
2024/01/26 11:52:41;;;;;;;5.95;1.95;;;;;;;;;;6128464;23;20024;-90
2024/01/26 11:55:12;;;;;;;7.72;1.52;;;;;;;;;;6154704;23;20345;-88
2024/01/26 11:57:40;;;;;;;9.00;1.60;;;;;;;;;;6149118;23;20023;-89
2024/01/26 12:00:09;;;;;;;;;;;;;;;;;;6129715;23;20516;-88
2024/01/26 12:02:37;;;;;;;7.72;1.90;;;;;;;;;;6177430;23;19916;-89
2024/01/26 12:05:09;;;;;;;6.80;1.95;;;;;;;;;;6154793;23;20012;-89
2024/01/26 12:07:36;;;;;;;10.02;1.88;;;;;;;;;;6155223;23;20016;-90
2024/01/26 12:10:05;;;;;;;7.40;1.50;;;;;;;;;;6156090;23;20020;-89
2024/01/26 12:12:34;;;;;;;4.85;1.20;;;;;;;;;;6177858;23;20155;-89
2024/01/26 12:15:03;;;;;;;;;;;;;;;;;;6152482;23;20219;-88
2024/01/26 12:17:31;;;;;;;9.10;1.83;;;;;;;;;;6178475;23;20288;-89
2024/01/26 12:19:58;;;;;;;10.45;2.00;;;;;;;;;;6152229;23;20069;-89
2024/01/26 12:22:28;;;;;;;8.40;1.83;;;;;;;;;;6130190;23;20369;-89
2024/01/26 12:25:06;;;;;;;;;;;;;;;;;;6160480;23;20020;-89
2024/01/26 12:27:35;;;;;;;15.32;2.60;;;;;;;;;;6178534;23;19967;-89
2024/01/26 12:30:03;;;;;;;;;;;;;;;;;;6179559;23;20024;-89
2024/01/26 12:32:30;;;;;;;14.23;2.90;;;;;;;;;;6155569;23;19911;-89
2024/01/26 12:34:59;;;;;;;14.10;3.63;;;;;;;;;;6144257;23;20029;-89
2024/01/26 12:37:26;;;;;;;8.35;1.58;;;;;;;;;;6150667;23;20344;-89
2024/01/26 12:39:53;;;;;;;16.27;2.63;;;;;;;;;;6144711;23;20017;-89
2024/01/26 12:42:22;;;;;;;11.73;2.35;;;;;;;;;;6127459;23;20017;-89
2024/01/26 12:44:50;;;;;;;9.23;2.22;;;;;;;;;;6147679;23;20433;-89
2024/01/26 12:47:19;;;;;;;13.48;2.53;;;;;;;;;;6150648;23;20087;-89
2024/01/26 12:49:48;;;;;;;12.85;2.97;;;;;;;;;;6146687;23;20021;-88
2024/01/26 12:52:16;;;;;;;10.38;2.03;;;;;;;;;;6175705;23;20093;-89
2024/01/26 12:54:52;;;;;;;9.43;2.03;;;;;;;;;;6171119;23;20028;-88
2024/01/26 12:57:21;;;;;;;11.05;1.60;;;;;;;;;;6173488;23;20025;-89
2024/01/26 12:59:50;;;;;;;7.68;1.80;;;;;;;;;;6147027;23;20028;-89
2024/01/26 13:02:17;;;;;;;10.32;1.30;;;;;;;;;;6175594;23;20016;-89
2024/01/26 13:04:49;;;;;;;3.95;1.30;;;;;;;;;;6145959;23;20120;-88
2024/01/26 13:07:15;;;;;;;6.95;1.70;;;;;;;;;;6146765;23;20013;-89
2024/01/26 13:09:42;;;;;;;7.00;1.55;;;;;;;;;;6145462;23;20024;-89
2024/01/26 13:12:10;;;;;;;6.05;1.40;;;;;;;;;;6183063;23;20024;-89
2024/01/26 13:14:40;;;;;;;5.20;1.00;;;;;;;;;;6155036;23;20016;-89
2024/01/26 13:17:08;;;;;;;7.10;1.42;;;;;;;;;;6174407;23;20342;-89
2024/01/26 13:19:40;;;;;;;8.63;3.00;;;;;;;;;;6149285;23;20438;-89
2024/01/26 13:22:09;;;;;;;8.27;1.40;;;;;;;;;;6174218;23;20024;-89
2024/01/26 13:24:47;;;;;;;6.25;1.25;;;;;;;;;;6172024;23;20028;-88
2024/01/26 13:27:15;;;;;;;6.95;1.50;;;;;;;;;;6174650;23;20017;-89
2024/01/26 13:29:44;;;;;;;5.18;1.60;;;;;;;;;;6171902;23;20032;-89
2024/01/26 13:32:12;;;;;;;6.70;1.27;;;;;;;;;;6150128;23;20029;-89
2024/01/26 13:34:43;;;;;;;7.75;1.80;;;;;;;;;;6144682;23;20476;-88
2024/01/26 13:37:10;;;;;;;6.45;1.48;;;;;;;;;;6150170;23;20025;-90
2024/01/26 13:39:41;;;;;;;7.18;1.42;;;;;;;;;;6171860;23;20024;-89
2024/01/26 13:42:09;;;;;;;11.18;1.40;;;;;;;;;;6152754;23;20466;-89
2024/01/26 13:44:37;;;;;;;7.93;1.88;;;;;;;;;;6150716;23;20024;-89
2024/01/26 13:47:18;;;;;;;10.23;1.67;;;;;;;;;;6174275;23;20017;-89
2024/01/26 13:49:52;;;;;;;10.00;1.73;;;;;;;;;;6149377;23;20429;-88
2024/01/26 13:52:20;;;;;;;6.78;1.60;;;;;;;;;;6176212;23;20342;-89
2024/01/26 13:54:57;;;;;;;8.80;2.15;;;;;;;;;;6172170;23;20032;-88
2024/01/26 13:57:24;;;;;;;6.25;1.35;;;;;;;;;;6150067;23;20075;-90
2024/01/26 13:59:52;;;;;;;7.53;1.60;;;;;;;;;;6124206;23;20024;-89
2024/01/26 14:02:30;;;;;;;7.43;1.20;;;;;;;;;;6177769;23;20013;-88
2024/01/26 14:04:57;;;;;;;6.05;1.13;;;;;;;;;;6148273;23;20047;-89
2024/01/26 14:07:27;;;;;;;7.88;1.45;;;;;;;;;;6174692;23;20382;-90
2024/01/26 14:09:58;;;;;;;5.95;1.17;;;;;;;;;;6172472;23;20333;-88
2024/01/26 14:12:25;;;;;;;4.28;1.20;;;;;;;;;;6176012;23;20021;-89
2024/01/26 14:15:04;;;;;;;7.28;1.52;;;;;;;;;;6154100;23;20032;-89
2024/01/26 14:17:33;;;;;;;4.97;1.00;;;;;;;;;;6173582;23;20021;-89
2024/01/26 14:19:59;;;;;;;8.05;1.27;;;;;;;;;;6173108;23;20067;-88
2024/01/26 14:22:27;;;;;;;2.38;0.77;;;;;;;;;;6176243;23;20009;-89
2024/01/26 14:24:55;;;;;;;4.35;1.08;;;;;;;;;;6147681;23;20021;-90
2024/01/26 14:27:26;;;;;;;6.82;1.45;;;;;;;;;;6175227;23;20056;-88
2024/01/26 14:29:54;;;;;;;4.88;0.88;;;;;;;;;;6172952;23;20401;-90
2024/01/26 14:32:20;;;;;;;9.88;1.40;;;;;;;;;;6176207;23;20075;-89
2024/01/26 14:34:48;;;;;;;6.32;1.13;;;;;;;;;;6148180;23;20041;-89
2024/01/26 14:37:15;;;;;;;;;;;;;;;;;;6151360;23;20442;-90
2024/01/26 14:39:43;;;;;;;11.80;1.48;;;;;;;;;;6172054;23;19916;-90
2024/01/26 14:42:15;;;;;;;4.10;1.38;;;;;;;;;;6175295;23;20045;-89
2024/01/26 14:44:43;;;;;;;7.10;1.35;;;;;;;;;;6148883;23;20013;-90
2024/01/26 14:47:12;;;;;;;4.97;1.60;;;;;;;;;;6177023;23;20017;-89
2024/01/26 14:49:43;;;;;;;;;;;;;;;;;;6172508;23;20095;-89
2024/01/26 14:52:12;;;;;;;6.30;1.55;;;;;;;;;;6175955;23;19912;-89
2024/01/26 14:54:45;;;;;;;7.90;1.92;;;;;;;;;;6172083;23;20147;-89
2024/01/26 14:57:24;;;;;;;8.77;1.63;;;;;;;;;;6175472;23;20051;-89
2024/01/26 14:59:50;;;;;;;10.18;1.70;;;;;;;;;;6145203;23;20067;-88
2024/01/26 15:02:35;;;;;;;5.20;1.50;;;;;;;;;;6176625;23;20016;-89
2024/01/26 15:05:07;;;;;;;7.43;1.58;;;;;;;;;;6151201;23;20017;-89
2024/01/26 15:07:36;;;;;;;5.57;1.65;;;;;;;;;;6175223;23;20023;-89
2024/01/26 15:10:04;;;;;;;8.75;2.15;;;;;;;;;;6146837;23;20017;-89
2024/01/26 15:12:50;;;;;;;7.20;1.25;;;;;;;;;;6151801;23;20103;-89
2024/01/26 15:15:18;;;;;;;8.27;1.60;;;;;;;;;;6148502;23;20029;-89
2024/01/26 15:17:47;;;;;;;5.05;1.08;;;;;;;;;;6121345;23;20019;-89
2024/01/26 15:20:16;;;;;;;7.13;2.00;;;;;;;;;;6174113;23;20017;-89
2024/01/26 15:22:48;;;;;;;13.25;1.77;;;;;;;;;;6173055;23;20021;-89
2024/01/26 15:25:25;;;;;;;14.18;3.20;;;;;;;;;;6174532;23;20055;-89
2024/01/26 15:27:52;;;;;;;8.52;2.60;;;;;;;;;;6173455;23;20019;-89
2024/01/26 15:30:20;;;;;;;12.90;2.03;;;;;;;;;;6174067;23;20109;-89
2024/01/26 15:32:47;;;;;;;10.75;1.75;;;;;;;;;;6148240;23;20024;-89
2024/01/26 15:35:15;;;;;;;10.13;2.05;;;;;;;;;;6125521;23;20063;-89
2024/01/26 15:37:43;;;;;;;8.77;2.55;;;;;;;;;;6148553;23;20024;-89
2024/01/26 15:40:13;;;;;;;6.40;1.25;;;;;;;;;;6174780;23;20092;-88
2024/01/26 15:42:49;;;;;;;9.98;1.95;;;;;;;;;;6174070;23;20020;-90